Site contains unofficial IBTrACS data. Visit the IBTrACS Website to access archived data.

1916 NOT_NAMED (1916260N13118)


IBTrACS version v04r00. Visit IBTrACS website for data access.
Please direct all questions to the IBTrACS Q and A forum

Storm track - Intensity - Wind Radii - Intensity Data - Source Data - All data

Summary Information

Storm ID 1916260N13118
Start Sep 15 22Z
Landfall Sep 21 03Z
End Sep 21 22Z
ATCF IDs
Track status Best track data.

Storm track plot

Map of storm track

Intensity plots

No Intensity information for this storm


Radial wind information

No radial wind information for this storm


Position and Intensity Table

BASIN ISO_TIME_________ NATURE LAT LON
degrees north degrees east
WP 1916-09-15 22:00:00 NR 13.10 118.40
WP 1916-09-16 00:00:00 NR 13.21 117.93
WP 03:00:00 NR 13.38 117.23
WP 06:00:00 NR 13.55 116.55
WP 09:00:00 NR 13.74 115.90
WP 10:00:00 NR 13.80 115.70
WP 12:00:00 NR 13.93 115.31
WP 15:00:00 NR 14.14 114.77
WP 18:00:00 NR 14.34 114.30
WP 21:00:00 NR 14.54 113.91
WP 22:00:00 NR 14.60 113.80
WP 1916-09-17 00:00:00 NR 14.72 113.61
WP 03:00:00 NR 14.89 113.39
WP 06:00:00 NR 15.03 113.21
WP 09:00:00 NR 15.16 113.06
WP 10:00:00 NR 15.20 113.00
WP 12:00:00 NR 15.28 112.86
WP 15:00:00 NR 15.39 112.64
WP 18:00:00 NR 15.46 112.41
WP 21:00:00 NR 15.50 112.18
WP 22:00:00 NR 15.50 112.10
WP 1916-09-18 00:00:00 NR 15.48 111.94
WP 03:00:00 NR 15.40 111.69
WP 06:00:00 NR 15.31 111.44
WP 09:00:00 NR 15.22 111.18
WP 10:00:00 NR 15.20 111.10
WP 12:00:00 NR 15.18 110.92
WP 15:00:00 NR 15.16 110.66
WP 18:00:00 NR 15.16 110.40
WP 21:00:00 NR 15.19 110.17
WP 22:00:00 NR 15.20 110.10
WP 1916-09-19 00:00:00 NR 15.22 109.97
WP 03:00:00 NR 15.28 109.80
WP 06:00:00 NR 15.36 109.65
WP 09:00:00 NR 15.46 109.54
WP 10:00:00 NR 15.50 109.50
WP 12:00:00 NR 15.57 109.42
WP 15:00:00 NR 15.70 109.32
WP 18:00:00 NR 15.85 109.25
WP 21:00:00 NR 16.03 109.21
WP 22:00:00 NR 16.10 109.20
WP 1916-09-20 00:00:00 NR 16.24 109.20
WP 03:00:00 NR 16.48 109.22
WP 06:00:00 NR 16.74 109.25
WP 09:00:00 NR 17.01 109.29
WP 10:00:00 NR 17.10 109.30
WP 12:00:00 NR 17.26 109.31
WP 15:00:00 NR 17.50 109.32
WP 18:00:00 NR 17.75 109.32
WP 21:00:00 NR 18.01 109.31
WP 22:00:00 NR 18.10 109.30
WP 1916-09-21 00:00:00 NR 18.29 109.29
WP 03:00:00 NR 18.60 109.26
WP 06:00:00 NR 18.90 109.21
WP 09:00:00 NR 19.20 109.13
WP 10:00:00 NR 19.30 109.10
WP 12:00:00 NR 19.48 109.02
WP 15:00:00 NR 19.74 108.89
WP 18:00:00 NR 19.99 108.73
WP 21:00:00 NR 20.22 108.56
WP 22:00:00 NR 20.30 108.50

Source Information

Agency Information
USA
TOKYO
CMA
HKO
NEWDELHI
REUNION
BOM
NADI
WELLINGTON
DS824
TD9636 cons_worldwide_trop_cyclone_18710101-19891231-003:Line=5367
TD9635
NEUMANN
MLC

All available IBTrACS Data

SEASON BASIN SUBBASIN ISO_TIME_________ NATURE LAT LON DIST2LAND LANDFALL IFLAG USA SSHS TD9636 LAT TD9636 LON TD9636 STAGE STORM SPEED STORM DIR
Year degrees north degrees east km km 1 degrees north degrees east kts degrees
1916 WP MM 1916-09-15 22:00:00 NR 13.10 118.40 208 208 __________O___ -1 13.10 118.40 3 14 284
1916 WP MM 1916-09-16 00:00:00 NR 13.21 117.93 260 260 __________P___ -1 13.21 117.93 3 14 284
1916 WP MM 03:00:00 NR 13.38 117.23 335 335 __________P___ -1 13.38 117.23 3 14 284
1916 WP MM 06:00:00 NR 13.55 116.55 410 410 __________P___ -1 13.55 116.55 3 13 285
1916 WP MM 09:00:00 NR 13.74 115.90 469 469 __________P___ -1 13.74 115.90 3 13 287
1916 WP MM 10:00:00 NR 13.80 115.70 486 486 __________O___ -1 13.80 115.70 4 12 289
1916 WP MM 12:00:00 NR 13.93 115.31 522 522 __________P___ -1 13.93 115.31 4 12 291
1916 WP MM 15:00:00 NR 14.14 114.77 567 541 __________P___ -1 14.14 114.77 4 11 293
1916 WP MM 18:00:00 NR 14.34 114.30 541 500 __________P___ -1 14.34 114.30 4 9 296
1916 WP MM 21:00:00 NR 14.54 113.91 500 491 __________P___ -1 14.54 113.91 4 8 298
1916 WP MM 22:00:00 NR 14.60 113.80 491 472 __________O___ -1 14.60 113.80 4 7 301
1916 WP MM 1916-09-17 00:00:00 NR 14.72 113.61 472 453 __________P___ -1 14.72 113.61 4 6 305
1916 WP MM 03:00:00 NR 14.89 113.39 455 437 __________P___ -1 14.89 113.39 4 5 310
1916 WP MM 06:00:00 NR 15.03 113.21 437 430 __________P___ -1 15.03 113.21 4 4 311
1916 WP MM 09:00:00 NR 15.16 113.06 433 422 __________P___ -1 15.16 113.06 4 4 309
1916 WP MM 10:00:00 NR 15.20 113.00 422 412 __________O___ -1 15.20 113.00 4 5 303
1916 WP MM 12:00:00 NR 15.28 112.86 413 384 __________P___ -1 15.28 112.86 4 5 298
1916 WP MM 15:00:00 NR 15.39 112.64 384 365 __________P___ -1 15.39 112.64 4 5 293
1916 WP MM 18:00:00 NR 15.46 112.41 365 344 __________P___ -1 15.46 112.41 4 5 284
1916 WP MM 21:00:00 NR 15.50 112.18 344 334 __________P___ -1 15.50 112.18 4 5 277
1916 WP MM 22:00:00 NR 15.50 112.10 334 313 __________O___ -1 15.50 112.10 4 5 264
1916 WP MM 1916-09-18 00:00:00 NR 15.48 111.94 313 290 __________P___ -1 15.48 111.94 4 5 256
1916 WP MM 03:00:00 NR 15.40 111.69 290 256 __________P___ -1 15.40 111.69 4 5 251
1916 WP MM 06:00:00 NR 15.31 111.44 256 232 __________P___ -1 15.31 111.44 4 5 250
1916 WP MM 09:00:00 NR 15.22 111.18 232 222 __________P___ -1 15.22 111.18 4 5 252
1916 WP MM 10:00:00 NR 15.20 111.10 222 201 __________O___ -1 15.20 111.10 4 5 259
1916 WP MM 12:00:00 NR 15.18 110.92 201 180 __________P___ -1 15.18 110.92 4 5 264
1916 WP MM 15:00:00 NR 15.16 110.66 180 150 __________P___ -1 15.16 110.66 4 5 268
1916 WP MM 18:00:00 NR 15.16 110.40 150 130 __________P___ -1 15.16 110.40 4 5 274
1916 WP MM 21:00:00 NR 15.19 110.17 130 121 __________P___ -1 15.19 110.17 4 4 278
1916 WP MM 22:00:00 NR 15.20 110.10 121 111 __________O___ -1 15.20 110.10 4 4 281
1916 WP MM 1916-09-19 00:00:00 NR 15.22 109.97 111 96 __________P___ -1 15.22 109.97 4 4 286
1916 WP MM 03:00:00 NR 15.28 109.80 96 86 __________P___ -1 15.28 109.80 4 3 294
1916 WP MM 06:00:00 NR 15.36 109.65 88 68 __________P___ -1 15.36 109.65 4 3 305
1916 WP MM 09:00:00 NR 15.46 109.54 72 72 __________P___ -1 15.46 109.54 4 3 313
1916 WP MM 10:00:00 NR 15.50 109.50 72 63 __________O___ -1 15.50 109.50 4 3 315
1916 WP MM 12:00:00 NR 15.57 109.42 69 69 __________P___ -1 15.57 109.42 4 3 320
1916 WP MM 15:00:00 NR 15.70 109.32 69 69 __________P___ -1 15.70 109.32 4 3 330
1916 WP MM 18:00:00 NR 15.85 109.25 85 77 __________P___ -1 15.85 109.25 4 4 341
1916 WP MM 21:00:00 NR 16.03 109.21 85 85 __________P___ -1 16.03 109.21 4 4 348
1916 WP MM 22:00:00 NR 16.10 109.20 91 91 __________O___ -1 16.10 109.20 4 4 0
1916 WP MM 1916-09-20 00:00:00 NR 16.24 109.20 96 101 __________P___ -1 16.24 109.20 4 5 4
1916 WP MM 03:00:00 NR 16.48 109.22 111 111 __________P___ -1 16.48 109.22 4 5 6
1916 WP MM 06:00:00 NR 16.74 109.25 132 135 __________P___ -1 16.74 109.25 4 5 7
1916 WP MM 09:00:00 NR 17.01 109.29 135 124 __________P___ -1 17.01 109.29 4 5 8
1916 WP MM 10:00:00 NR 17.10 109.30 124 102 __________O___ -1 17.10 109.30 4 5 4
1916 WP MM 12:00:00 NR 17.26 109.31 102 81 __________P___ -1 17.26 109.31 4 5 1
1916 WP MM 15:00:00 NR 17.50 109.32 81 49 __________P___ -1 17.50 109.32 4 5 0
1916 WP MM 18:00:00 NR 17.75 109.32 49 30 __________P___ -1 17.75 109.32 4 5 359
1916 WP MM 21:00:00 NR 18.01 109.31 30 23 __________P___ -1 18.01 109.31 4 5 358
1916 WP MM 22:00:00 NR 18.10 109.30 23 11 __________O___ -1 18.10 109.30 4 6 0
1916 WP MM 1916-09-21 00:00:00 NR 18.29 109.29 11 0 __________P___ -1 18.29 109.29 4 6 355
1916 WP MM 03:00:00 NR 18.60 109.26 0 0 __________P___ -1 18.60 109.26 4 6 352
1916 WP MM 06:00:00 NR 18.90 109.21 0 0 __________P___ -1 18.90 109.21 4 6 349
1916 WP MM 09:00:00 NR 19.20 109.13 0 0 __________P___ -1 19.20 109.13 4 6 345
1916 WP MM 10:00:00 NR 19.30 109.10 0 0 __________O___ -1 19.30 109.10 4 6 339
1916 WP MM 12:00:00 NR 19.48 109.02 0 0 __________P___ -1 19.48 109.02 4 6 336
1916 WP MM 15:00:00 NR 19.74 108.89 22 30 __________P___ -1 19.74 108.89 4 6 331
1916 WP MM 18:00:00 NR 19.99 108.73 59 59 __________P___ -1 19.99 108.73 4 6 327
1916 WP MM 21:00:00 NR 20.22 108.56 84 88 __________P___ -1 20.22 108.56 4 6 326
1916 WP MM 22:00:00 NR 20.30 108.50 98 __________O___ -1 20.30 108.50 4 6 323